sensor_id;sensor_type;location;lat;lon;timestamp;P1;durP1;ratioP1;P2;durP2;ratioP2
2868;SDS011;1442;47.448;8.582;2023-02-11T00:01:18;33.17;;;16.45;;
2868;SDS011;1442;47.448;8.582;2023-02-11T00:03:45;32.42;;;16.13;;
2868;SDS011;1442;47.448;8.582;2023-02-11T00:06:12;31.42;;;16.55;;
2868;SDS011;1442;47.448;8.582;2023-02-11T00:08:39;30.20;;;15.45;;
2868;SDS011;1442;47.448;8.582;2023-02-11T00:11:08;32.20;;;16.48;;
2868;SDS011;1442;47.448;8.582;2023-02-11T00:13:37;31.23;;;16.25;;
2868;SDS011;1442;47.448;8.582;2023-02-11T00:16:05;30.60;;;15.23;;
2868;SDS011;1442;47.448;8.582;2023-02-11T00:18:34;34.92;;;16.25;;
2868;SDS011;1442;47.448;8.582;2023-02-11T00:21:04;29.50;;;15.32;;
2868;SDS011;1442;47.448;8.582;2023-02-11T00:23:31;36.05;;;15.57;;
2868;SDS011;1442;47.448;8.582;2023-02-11T00:25:58;33.58;;;16.55;;
2868;SDS011;1442;47.448;8.582;2023-02-11T00:28:26;35.35;;;16.50;;
2868;SDS011;1442;47.448;8.582;2023-02-11T00:30:53;31.33;;;15.45;;
2868;SDS011;1442;47.448;8.582;2023-02-11T00:33:20;32.40;;;15.48;;
2868;SDS011;1442;47.448;8.582;2023-02-11T00:35:49;30.48;;;15.38;;
2868;SDS011;1442;47.448;8.582;2023-02-11T00:38:16;38.28;;;17.30;;
2868;SDS011;1442;47.448;8.582;2023-02-11T00:40:43;34.95;;;16.90;;
2868;SDS011;1442;47.448;8.582;2023-02-11T00:43:10;35.58;;;16.38;;
2868;SDS011;1442;47.448;8.582;2023-02-11T00:45:38;32.72;;;15.75;;
2868;SDS011;1442;47.448;8.582;2023-02-11T00:48:05;35.90;;;16.45;;
2868;SDS011;1442;47.448;8.582;2023-02-11T00:50:32;33.15;;;15.73;;
2868;SDS011;1442;47.448;8.582;2023-02-11T00:53:01;32.63;;;16.40;;
2868;SDS011;1442;47.448;8.582;2023-02-11T00:55:28;32.00;;;14.93;;
2868;SDS011;1442;47.448;8.582;2023-02-11T00:57:55;30.55;;;15.93;;
2868;SDS011;1442;47.448;8.582;2023-02-11T01:00:22;32.92;;;15.38;;
2868;SDS011;1442;47.448;8.582;2023-02-11T01:02:50;34.58;;;15.55;;
2868;SDS011;1442;47.448;8.582;2023-02-11T01:05:17;29.40;;;15.18;;
2868;SDS011;1442;47.448;8.582;2023-02-11T01:07:44;39.50;;;16.52;;
2868;SDS011;1442;47.448;8.582;2023-02-11T01:10:13;37.40;;;15.55;;
2868;SDS011;1442;47.448;8.582;2023-02-11T01:12:40;36.88;;;15.90;;
2868;SDS011;1442;47.448;8.582;2023-02-11T01:15:08;37.17;;;17.50;;
2868;SDS011;1442;47.448;8.582;2023-02-11T01:17:36;35.05;;;17.90;;
2868;SDS011;1442;47.448;8.582;2023-02-11T01:20:04;37.40;;;17.67;;
2868;SDS011;1442;47.448;8.582;2023-02-11T01:22:31;35.85;;;16.20;;
2868;SDS011;1442;47.448;8.582;2023-02-11T01:25:01;34.47;;;16.80;;
2868;SDS011;1442;47.448;8.582;2023-02-11T01:27:29;31.77;;;16.15;;
2868;SDS011;1442;47.448;8.582;2023-02-11T01:29:57;31.38;;;15.82;;
2868;SDS011;1442;47.448;8.582;2023-02-11T01:32:24;27.38;;;14.93;;
2868;SDS011;1442;47.448;8.582;2023-02-11T01:34:51;30.05;;;15.40;;
2868;SDS011;1442;47.448;8.582;2023-02-11T01:37:18;33.47;;;16.00;;
2868;SDS011;1442;47.448;8.582;2023-02-11T01:39:45;30.50;;;14.55;;
2868;SDS011;1442;47.448;8.582;2023-02-11T01:42:13;27.38;;;14.70;;
2868;SDS011;1442;47.448;8.582;2023-02-11T01:44:42;29.23;;;16.33;;
2868;SDS011;1442;47.448;8.582;2023-02-11T01:47:10;31.67;;;15.27;;
2868;SDS011;1442;47.448;8.582;2023-02-11T01:49:37;29.35;;;14.65;;
2868;SDS011;1442;47.448;8.582;2023-02-11T01:52:05;31.27;;;15.32;;
2868;SDS011;1442;47.448;8.582;2023-02-11T01:54:36;31.08;;;15.75;;
2868;SDS011;1442;47.448;8.582;2023-02-11T01:57:23;34.53;;;16.30;;
2868;SDS011;1442;47.448;8.582;2023-02-11T01:59:55;30.42;;;15.45;;
2868;SDS011;1442;47.448;8.582;2023-02-11T02:02:25;30.60;;;15.15;;
2868;SDS011;1442;47.448;8.582;2023-02-11T02:04:56;27.92;;;15.88;;
2868;SDS011;1442;47.448;8.582;2023-02-11T02:07:27;35.27;;;15.53;;
2868;SDS011;1442;47.448;8.582;2023-02-11T02:09:57;30.33;;;15.73;;
2868;SDS011;1442;47.448;8.582;2023-02-11T02:12:26;35.70;;;16.65;;
2868;SDS011;1442;47.448;8.582;2023-02-11T02:17:48;36.25;;;17.00;;
2868;SDS011;1442;47.448;8.582;2023-02-11T02:22:48;35.75;;;16.85;;
2868;SDS011;1442;47.448;8.582;2023-02-11T02:25:23;36.33;;;17.65;;
2868;SDS011;1442;47.448;8.582;2023-02-11T02:27:56;34.97;;;16.70;;
2868;SDS011;1442;47.448;8.582;2023-02-11T02:33:16;38.05;;;16.85;;
2868;SDS011;1442;47.448;8.582;2023-02-11T02:35:50;36.50;;;16.90;;
2868;SDS011;1442;47.448;8.582;2023-02-11T02:38:20;36.67;;;17.08;;
2868;SDS011;1442;47.448;8.582;2023-02-11T02:40:51;34.05;;;16.92;;
2868;SDS011;1442;47.448;8.582;2023-02-11T02:43:19;34.50;;;16.88;;
2868;SDS011;1442;47.448;8.582;2023-02-11T02:45:48;37.90;;;15.90;;
2868;SDS011;1442;47.448;8.582;2023-02-11T02:48:24;34.80;;;15.20;;
2868;SDS011;1442;47.448;8.582;2023-02-11T02:50:52;32.97;;;16.52;;
2868;SDS011;1442;47.448;8.582;2023-02-11T02:53:23;35.88;;;16.17;;
2868;SDS011;1442;47.448;8.582;2023-02-11T02:55:53;38.67;;;16.42;;
2868;SDS011;1442;47.448;8.582;2023-02-11T03:00:53;40.20;;;15.30;;
2868;SDS011;1442;47.448;8.582;2023-02-11T03:03:28;32.80;;;16.30;;
2868;SDS011;1442;47.448;8.582;2023-02-11T03:06:00;33.47;;;15.38;;
2868;SDS011;1442;47.448;8.582;2023-02-11T03:08:29;29.73;;;15.45;;
2868;SDS011;1442;47.448;8.582;2023-02-11T03:10:59;33.65;;;15.52;;
2868;SDS011;1442;47.448;8.582;2023-02-11T03:13:28;34.28;;;15.55;;
2868;SDS011;1442;47.448;8.582;2023-02-11T03:15:57;41.25;;;15.80;;
2868;SDS011;1442;47.448;8.582;2023-02-11T03:18:28;30.13;;;16.25;;
2868;SDS011;1442;47.448;8.582;2023-02-11T03:20:56;39.25;;;17.08;;
2868;SDS011;1442;47.448;8.582;2023-02-11T03:23:25;33.22;;;16.25;;
2868;SDS011;1442;47.448;8.582;2023-02-11T03:25:56;32.10;;;16.40;;
2868;SDS011;1442;47.448;8.582;2023-02-11T03:28:26;30.83;;;15.55;;
2868;SDS011;1442;47.448;8.582;2023-02-11T03:30:55;40.15;;;16.13;;
2868;SDS011;1442;47.448;8.582;2023-02-11T03:33:34;31.92;;;16.80;;
2868;SDS011;1442;47.448;8.582;2023-02-11T03:36:03;29.73;;;14.73;;
2868;SDS011;1442;47.448;8.582;2023-02-11T03:38:35;33.20;;;16.45;;
2868;SDS011;1442;47.448;8.582;2023-02-11T03:41:04;29.27;;;14.68;;
2868;SDS011;1442;47.448;8.582;2023-02-11T03:43:32;37.30;;;16.88;;
2868;SDS011;1442;47.448;8.582;2023-02-11T03:46:00;35.65;;;15.57;;
2868;SDS011;1442;47.448;8.582;2023-02-11T03:48:29;34.70;;;17.40;;
2868;SDS011;1442;47.448;8.582;2023-02-11T03:50:59;35.92;;;17.30;;
2868;SDS011;1442;47.448;8.582;2023-02-11T03:53:27;38.00;;;16.30;;
2868;SDS011;1442;47.448;8.582;2023-02-11T03:55:55;31.65;;;15.93;;
2868;SDS011;1442;47.448;8.582;2023-02-11T03:58:23;29.13;;;15.20;;
2868;SDS011;1442;47.448;8.582;2023-02-11T04:00:50;31.10;;;15.00;;
2868;SDS011;1442;47.448;8.582;2023-02-11T04:03:17;39.58;;;16.70;;
2868;SDS011;1442;47.448;8.582;2023-02-11T04:05:44;35.03;;;14.57;;
2868;SDS011;1442;47.448;8.582;2023-02-11T04:08:13;33.90;;;15.73;;
2868;SDS011;1442;47.448;8.582;2023-02-11T04:10:40;36.08;;;16.73;;
2868;SDS011;1442;47.448;8.582;2023-02-11T04:13:07;35.20;;;15.52;;
2868;SDS011;1442;47.448;8.582;2023-02-11T04:15:35;34.55;;;16.02;;
2868;SDS011;1442;47.448;8.582;2023-02-11T04:18:02;34.70;;;16.10;;
2868;SDS011;1442;47.448;8.582;2023-02-11T04:20:29;31.90;;;14.90;;
2868;SDS011;1442;47.448;8.582;2023-02-11T04:22:56;32.85;;;16.00;;
2868;SDS011;1442;47.448;8.582;2023-02-11T04:25:25;29.70;;;14.73;;
2868;SDS011;1442;47.448;8.582;2023-02-11T04:27:52;31.95;;;15.38;;
2868;SDS011;1442;47.448;8.582;2023-02-11T04:30:19;34.15;;;15.18;;
2868;SDS011;1442;47.448;8.582;2023-02-11T04:32:46;32.35;;;15.02;;
2868;SDS011;1442;47.448;8.582;2023-02-11T04:35:13;30.02;;;15.55;;
2868;SDS011;1442;47.448;8.582;2023-02-11T04:37:40;29.00;;;15.32;;
2868;SDS011;1442;47.448;8.582;2023-02-11T04:40:08;34.03;;;15.43;;
2868;SDS011;1442;47.448;8.582;2023-02-11T04:42:37;35.80;;;15.13;;
2868;SDS011;1442;47.448;8.582;2023-02-11T04:45:04;28.35;;;14.88;;
2868;SDS011;1442;47.448;8.582;2023-02-11T04:47:32;27.92;;;15.70;;
2868;SDS011;1442;47.448;8.582;2023-02-11T04:50:00;29.27;;;15.45;;
2868;SDS011;1442;47.448;8.582;2023-02-11T04:52:27;30.00;;;14.57;;
2868;SDS011;1442;47.448;8.582;2023-02-11T04:54:54;32.10;;;15.50;;
2868;SDS011;1442;47.448;8.582;2023-02-11T04:57:21;30.08;;;14.98;;
2868;SDS011;1442;47.448;8.582;2023-02-11T04:59:50;30.83;;;14.82;;
2868;SDS011;1442;47.448;8.582;2023-02-11T05:02:17;34.45;;;15.65;;
2868;SDS011;1442;47.448;8.582;2023-02-11T05:04:44;29.00;;;14.68;;
2868;SDS011;1442;47.448;8.582;2023-02-11T05:07:11;31.77;;;14.57;;
2868;SDS011;1442;47.448;8.582;2023-02-11T05:09:38;31.27;;;14.95;;
2868;SDS011;1442;47.448;8.582;2023-02-11T05:12:06;32.72;;;14.85;;
2868;SDS011;1442;47.448;8.582;2023-02-11T05:14:33;33.75;;;15.30;;
2868;SDS011;1442;47.448;8.582;2023-02-11T05:17:01;30.25;;;15.38;;
2868;SDS011;1442;47.448;8.582;2023-02-11T05:19:29;32.60;;;15.73;;
2868;SDS011;1442;47.448;8.582;2023-02-11T05:21:56;31.90;;;15.48;;
2868;SDS011;1442;47.448;8.582;2023-02-11T05:24:23;31.58;;;15.88;;
2868;SDS011;1442;47.448;8.582;2023-02-11T05:26:50;31.23;;;15.05;;
2868;SDS011;1442;47.448;8.582;2023-02-11T05:29:17;32.35;;;16.10;;
2868;SDS011;1442;47.448;8.582;2023-02-11T05:31:45;33.47;;;16.35;;
2868;SDS011;1442;47.448;8.582;2023-02-11T05:34:13;28.65;;;16.15;;
2868;SDS011;1442;47.448;8.582;2023-02-11T05:36:40;35.00;;;16.10;;
2868;SDS011;1442;47.448;8.582;2023-02-11T05:39:07;35.03;;;16.05;;
2868;SDS011;1442;47.448;8.582;2023-02-11T05:41:34;30.35;;;15.10;;
2868;SDS011;1442;47.448;8.582;2023-02-11T05:44:02;24.85;;;13.95;;
2868;SDS011;1442;47.448;8.582;2023-02-11T05:46:29;31.85;;;15.25;;
2868;SDS011;1442;47.448;8.582;2023-02-11T05:48:56;29.15;;;13.93;;
2868;SDS011;1442;47.448;8.582;2023-02-11T05:51:25;28.95;;;14.70;;
2868;SDS011;1442;47.448;8.582;2023-02-11T05:53:52;32.38;;;15.18;;
2868;SDS011;1442;47.448;8.582;2023-02-11T05:56:19;30.98;;;15.02;;
2868;SDS011;1442;47.448;8.582;2023-02-11T05:58:46;27.05;;;13.18;;
2868;SDS011;1442;47.448;8.582;2023-02-11T06:01:13;34.53;;;14.68;;
2868;SDS011;1442;47.448;8.582;2023-02-11T06:03:41;28.08;;;14.32;;
2868;SDS011;1442;47.448;8.582;2023-02-11T06:06:08;32.45;;;14.90;;
2868;SDS011;1442;47.448;8.582;2023-02-11T06:08:37;32.80;;;14.50;;
2868;SDS011;1442;47.448;8.582;2023-02-11T06:11:04;32.83;;;16.13;;
2868;SDS011;1442;47.448;8.582;2023-02-11T06:13:31;30.42;;;13.88;;
2868;SDS011;1442;47.448;8.582;2023-02-11T06:15:58;32.35;;;14.68;;
2868;SDS011;1442;47.448;8.582;2023-02-11T06:18:26;31.35;;;14.50;;
2868;SDS011;1442;47.448;8.582;2023-02-11T06:20:54;40.88;;;15.52;;
2868;SDS011;1442;47.448;8.582;2023-02-11T06:23:21;28.88;;;15.18;;
2868;SDS011;1442;47.448;8.582;2023-02-11T06:25:50;31.88;;;15.70;;
2868;SDS011;1442;47.448;8.582;2023-02-11T06:28:17;29.80;;;15.48;;
2868;SDS011;1442;47.448;8.582;2023-02-11T06:30:44;33.25;;;15.45;;
2868;SDS011;1442;47.448;8.582;2023-02-11T06:33:11;37.72;;;15.45;;
2868;SDS011;1442;47.448;8.582;2023-02-11T06:35:39;32.13;;;15.75;;
2868;SDS011;1442;47.448;8.582;2023-02-11T06:38:06;37.78;;;15.13;;
2868;SDS011;1442;47.448;8.582;2023-02-11T06:40:33;30.70;;;16.27;;
2868;SDS011;1442;47.448;8.582;2023-02-11T06:43:01;40.63;;;16.23;;
2868;SDS011;1442;47.448;8.582;2023-02-11T06:45:29;32.67;;;15.43;;
2868;SDS011;1442;47.448;8.582;2023-02-11T06:47:56;36.22;;;17.20;;
2868;SDS011;1442;47.448;8.582;2023-02-11T06:50:23;34.83;;;15.70;;
2868;SDS011;1442;47.448;8.582;2023-02-11T06:52:50;31.65;;;14.68;;
2868;SDS011;1442;47.448;8.582;2023-02-11T06:55:17;31.70;;;16.02;;
2868;SDS011;1442;47.448;8.582;2023-02-11T06:57:44;35.05;;;17.02;;
2868;SDS011;1442;47.448;8.582;2023-02-11T07:00:13;34.70;;;15.63;;
2868;SDS011;1442;47.448;8.582;2023-02-11T07:02:41;38.88;;;17.20;;
2868;SDS011;1442;47.448;8.582;2023-02-11T07:05:08;30.40;;;14.77;;
2868;SDS011;1442;47.448;8.582;2023-02-11T07:07:35;30.67;;;15.20;;
2868;SDS011;1442;47.448;8.582;2023-02-11T07:10:03;30.75;;;15.07;;
2868;SDS011;1442;47.448;8.582;2023-02-11T07:12:30;34.53;;;15.90;;
2868;SDS011;1442;47.448;8.582;2023-02-11T07:14:57;31.63;;;16.02;;
2868;SDS011;1442;47.448;8.582;2023-02-11T07:17:26;33.72;;;15.18;;
2868;SDS011;1442;47.448;8.582;2023-02-11T07:19:53;30.60;;;14.30;;
2868;SDS011;1442;47.448;8.582;2023-02-11T07:22:20;26.02;;;14.43;;
2868;SDS011;1442;47.448;8.582;2023-02-11T07:24:48;37.50;;;15.50;;
2868;SDS011;1442;47.448;8.582;2023-02-11T07:27:15;36.45;;;16.08;;
2868;SDS011;1442;47.448;8.582;2023-02-11T07:29:42;32.92;;;15.50;;
2868;SDS011;1442;47.448;8.582;2023-02-11T07:32:11;33.33;;;15.32;;
2868;SDS011;1442;47.448;8.582;2023-02-11T07:34:39;33.88;;;15.23;;
2868;SDS011;1442;47.448;8.582;2023-02-11T07:37:06;26.52;;;14.30;;
2868;SDS011;1442;47.448;8.582;2023-02-11T07:39:34;34.25;;;12.90;;
2868;SDS011;1442;47.448;8.582;2023-02-11T07:42:02;27.33;;;12.77;;
2868;SDS011;1442;47.448;8.582;2023-02-11T07:44:29;32.00;;;14.18;;
2868;SDS011;1442;47.448;8.582;2023-02-11T07:46:57;26.00;;;13.52;;
2868;SDS011;1442;47.448;8.582;2023-02-11T07:49:24;22.33;;;11.82;;
2868;SDS011;1442;47.448;8.582;2023-02-11T07:51:53;22.92;;;12.00;;
2868;SDS011;1442;47.448;8.582;2023-02-11T07:54:20;21.48;;;10.98;;
2868;SDS011;1442;47.448;8.582;2023-02-11T07:56:47;22.52;;;11.30;;
2868;SDS011;1442;47.448;8.582;2023-02-11T07:59:14;21.65;;;11.15;;
2868;SDS011;1442;47.448;8.582;2023-02-11T08:01:42;18.90;;;10.45;;
2868;SDS011;1442;47.448;8.582;2023-02-11T08:04:09;22.55;;;11.60;;
2868;SDS011;1442;47.448;8.582;2023-02-11T08:06:39;22.27;;;11.05;;
2868;SDS011;1442;47.448;8.582;2023-02-11T08:09:09;28.25;;;11.38;;
2868;SDS011;1442;47.448;8.582;2023-02-11T08:11:37;23.27;;;12.13;;
2868;SDS011;1442;47.448;8.582;2023-02-11T08:14:04;22.83;;;12.30;;
2868;SDS011;1442;47.448;8.582;2023-02-11T08:16:32;22.58;;;11.25;;
2868;SDS011;1442;47.448;8.582;2023-02-11T08:19:00;23.38;;;12.13;;
2868;SDS011;1442;47.448;8.582;2023-02-11T08:21:27;22.50;;;11.95;;
2868;SDS011;1442;47.448;8.582;2023-02-11T08:23:54;29.80;;;12.43;;
2868;SDS011;1442;47.448;8.582;2023-02-11T08:26:24;24.33;;;11.80;;
2868;SDS011;1442;47.448;8.582;2023-02-11T08:28:52;24.73;;;11.93;;
2868;SDS011;1442;47.448;8.582;2023-02-11T08:31:20;25.10;;;13.10;;
2868;SDS011;1442;47.448;8.582;2023-02-11T08:33:48;24.88;;;13.13;;
2868;SDS011;1442;47.448;8.582;2023-02-11T08:36:16;26.85;;;12.45;;
2868;SDS011;1442;47.448;8.582;2023-02-11T08:38:43;24.67;;;13.05;;
2868;SDS011;1442;47.448;8.582;2023-02-11T08:41:11;26.73;;;13.90;;
2868;SDS011;1442;47.448;8.582;2023-02-11T08:43:40;27.35;;;14.00;;
2868;SDS011;1442;47.448;8.582;2023-02-11T08:46:08;25.35;;;14.50;;
2868;SDS011;1442;47.448;8.582;2023-02-11T08:48:35;24.63;;;13.45;;
2868;SDS011;1442;47.448;8.582;2023-02-11T08:51:04;25.15;;;12.75;;
2868;SDS011;1442;47.448;8.582;2023-02-11T08:53:31;29.80;;;13.73;;
2868;SDS011;1442;47.448;8.582;2023-02-11T08:55:59;27.27;;;13.23;;
2868;SDS011;1442;47.448;8.582;2023-02-11T08:58:26;27.95;;;14.43;;
2868;SDS011;1442;47.448;8.582;2023-02-11T09:00:55;26.85;;;12.90;;
2868;SDS011;1442;47.448;8.582;2023-02-11T09:03:22;20.83;;;12.23;;
2868;SDS011;1442;47.448;8.582;2023-02-11T09:05:49;25.83;;;13.02;;
2868;SDS011;1442;47.448;8.582;2023-02-11T09:08:17;22.95;;;12.80;;
2868;SDS011;1442;47.448;8.582;2023-02-11T09:10:45;24.70;;;13.25;;
2868;SDS011;1442;47.448;8.582;2023-02-11T09:13:12;23.27;;;13.30;;
2868;SDS011;1442;47.448;8.582;2023-02-11T09:15:43;22.17;;;12.43;;
2868;SDS011;1442;47.448;8.582;2023-02-11T09:18:12;23.85;;;13.18;;
2868;SDS011;1442;47.448;8.582;2023-02-11T09:20:39;26.00;;;14.02;;
2868;SDS011;1442;47.448;8.582;2023-02-11T09:23:06;23.88;;;12.98;;
2868;SDS011;1442;47.448;8.582;2023-02-11T09:25:33;22.95;;;14.20;;
2868;SDS011;1442;47.448;8.582;2023-02-11T09:28:00;27.00;;;13.65;;
2868;SDS011;1442;47.448;8.582;2023-02-11T09:30:27;23.50;;;13.93;;
2868;SDS011;1442;47.448;8.582;2023-02-11T09:32:55;24.20;;;14.38;;
2868;SDS011;1442;47.448;8.582;2023-02-11T09:35:23;26.30;;;14.15;;
2868;SDS011;1442;47.448;8.582;2023-02-11T09:37:50;26.23;;;14.27;;
2868;SDS011;1442;47.448;8.582;2023-02-11T09:40:17;26.48;;;14.27;;
2868;SDS011;1442;47.448;8.582;2023-02-11T09:42:45;28.30;;;14.55;;
2868;SDS011;1442;47.448;8.582;2023-02-11T09:45:16;29.45;;;14.57;;
2868;SDS011;1442;47.448;8.582;2023-02-11T09:47:48;28.25;;;14.77;;
2868;SDS011;1442;47.448;8.582;2023-02-11T09:50:17;24.17;;;13.45;;
2868;SDS011;1442;47.448;8.582;2023-02-11T09:52:49;26.48;;;14.27;;
2868;SDS011;1442;47.448;8.582;2023-02-11T09:55:20;27.70;;;14.05;;
2868;SDS011;1442;47.448;8.582;2023-02-11T09:57:47;29.77;;;15.13;;
2868;SDS011;1442;47.448;8.582;2023-02-11T10:00:16;33.72;;;15.57;;
2868;SDS011;1442;47.448;8.582;2023-02-11T10:02:48;31.15;;;16.88;;
2868;SDS011;1442;47.448;8.582;2023-02-11T10:05:24;27.80;;;16.05;;
2868;SDS011;1442;47.448;8.582;2023-02-11T10:07:58;30.20;;;15.95;;
2868;SDS011;1442;47.448;8.582;2023-02-11T10:10:34;29.15;;;16.17;;
2868;SDS011;1442;47.448;8.582;2023-02-11T10:13:17;31.00;;;15.55;;
2868;SDS011;1442;47.448;8.582;2023-02-11T10:15:47;30.80;;;16.60;;
2868;SDS011;1442;47.448;8.582;2023-02-11T10:18:33;27.43;;;15.50;;
2868;SDS011;1442;47.448;8.582;2023-02-11T10:21:08;26.60;;;14.75;;
2868;SDS011;1442;47.448;8.582;2023-02-11T10:23:41;29.15;;;16.05;;
2868;SDS011;1442;47.448;8.582;2023-02-11T10:26:11;30.20;;;15.13;;
2868;SDS011;1442;47.448;8.582;2023-02-11T10:28:38;27.23;;;14.70;;
2868;SDS011;1442;47.448;8.582;2023-02-11T10:31:08;27.73;;;14.80;;
2868;SDS011;1442;47.448;8.582;2023-02-11T10:33:40;27.27;;;15.43;;
2868;SDS011;1442;47.448;8.582;2023-02-11T10:36:10;29.02;;;15.02;;
2868;SDS011;1442;47.448;8.582;2023-02-11T10:38:37;24.13;;;13.40;;
2868;SDS011;1442;47.448;8.582;2023-02-11T10:41:08;29.42;;;14.23;;
2868;SDS011;1442;47.448;8.582;2023-02-11T10:43:35;26.73;;;15.10;;
2868;SDS011;1442;47.448;8.582;2023-02-11T10:46:03;27.33;;;15.75;;
2868;SDS011;1442;47.448;8.582;2023-02-11T10:48:38;25.75;;;15.18;;
2868;SDS011;1442;47.448;8.582;2023-02-11T10:51:06;31.08;;;15.52;;
2868;SDS011;1442;47.448;8.582;2023-02-11T10:53:33;31.10;;;16.95;;
2868;SDS011;1442;47.448;8.582;2023-02-11T10:56:00;27.23;;;16.02;;
2868;SDS011;1442;47.448;8.582;2023-02-11T10:58:33;27.48;;;15.23;;
2868;SDS011;1442;47.448;8.582;2023-02-11T11:01:02;25.70;;;13.93;;
2868;SDS011;1442;47.448;8.582;2023-02-11T11:03:31;26.67;;;14.55;;
2868;SDS011;1442;47.448;8.582;2023-02-11T11:06:00;24.95;;;13.80;;
2868;SDS011;1442;47.448;8.582;2023-02-11T11:08:36;24.35;;;13.82;;
2868;SDS011;1442;47.448;8.582;2023-02-11T11:11:04;30.42;;;14.43;;
2868;SDS011;1442;47.448;8.582;2023-02-11T11:13:34;27.02;;;14.10;;
2868;SDS011;1442;47.448;8.582;2023-02-11T11:16:21;25.73;;;14.35;;
2868;SDS011;1442;47.448;8.582;2023-02-11T11:18:50;22.70;;;12.88;;
2868;SDS011;1442;47.448;8.582;2023-02-11T11:21:19;24.85;;;13.30;;
2868;SDS011;1442;47.448;8.582;2023-02-11T11:23:47;26.08;;;14.95;;
2868;SDS011;1442;47.448;8.582;2023-02-11T11:26:15;29.60;;;14.63;;
2868;SDS011;1442;47.448;8.582;2023-02-11T11:28:51;27.60;;;15.00;;
2868;SDS011;1442;47.448;8.582;2023-02-11T11:31:20;26.63;;;16.38;;
2868;SDS011;1442;47.448;8.582;2023-02-11T11:33:48;30.80;;;14.98;;
2868;SDS011;1442;47.448;8.582;2023-02-11T11:36:18;25.08;;;14.05;;
2868;SDS011;1442;47.448;8.582;2023-02-11T11:38:47;27.13;;;14.98;;
2868;SDS011;1442;47.448;8.582;2023-02-11T11:41:20;27.92;;;14.73;;
2868;SDS011;1442;47.448;8.582;2023-02-11T11:44:00;22.25;;;12.65;;
2868;SDS011;1442;47.448;8.582;2023-02-11T11:46:29;23.25;;;11.77;;
2868;SDS011;1442;47.448;8.582;2023-02-11T11:49:01;22.83;;;11.73;;
2868;SDS011;1442;47.448;8.582;2023-02-11T11:51:30;20.48;;;12.13;;
2868;SDS011;1442;47.448;8.582;2023-02-11T11:53:59;25.17;;;11.85;;
2868;SDS011;1442;47.448;8.582;2023-02-11T11:56:27;22.00;;;11.95;;
2868;SDS011;1442;47.448;8.582;2023-02-11T11:58:55;18.38;;;12.05;;
2868;SDS011;1442;47.448;8.582;2023-02-11T12:01:29;25.23;;;11.93;;
2868;SDS011;1442;47.448;8.582;2023-02-11T12:06:43;23.25;;;11.88;;
2868;SDS011;1442;47.448;8.582;2023-02-11T12:09:18;23.90;;;12.95;;
2868;SDS011;1442;47.448;8.582;2023-02-11T12:11:57;23.00;;;12.10;;
2868;SDS011;1442;47.448;8.582;2023-02-11T12:14:30;21.08;;;11.55;;
2868;SDS011;1442;47.448;8.582;2023-02-11T12:17:02;18.50;;;10.80;;
2868;SDS011;1442;47.448;8.582;2023-02-11T12:22:23;20.30;;;12.25;;
2868;SDS011;1442;47.448;8.582;2023-02-11T12:24:55;22.02;;;11.93;;
2868;SDS011;1442;47.448;8.582;2023-02-11T12:27:28;22.17;;;11.65;;
2868;SDS011;1442;47.448;8.582;2023-02-11T12:30:01;29.40;;;13.05;;
2868;SDS011;1442;47.448;8.582;2023-02-11T12:32:32;22.38;;;12.00;;
2868;SDS011;1442;47.448;8.582;2023-02-11T12:35:08;20.17;;;11.98;;
2868;SDS011;1442;47.448;8.582;2023-02-11T12:37:41;22.35;;;11.80;;
2868;SDS011;1442;47.448;8.582;2023-02-11T12:40:14;21.27;;;12.57;;
2868;SDS011;1442;47.448;8.582;2023-02-11T12:42:49;25.75;;;11.85;;
2868;SDS011;1442;47.448;8.582;2023-02-11T12:45:37;23.23;;;11.05;;
2868;SDS011;1442;47.448;8.582;2023-02-11T12:48:19;20.67;;;11.30;;
2868;SDS011;1442;47.448;8.582;2023-02-11T12:50:52;22.27;;;10.52;;
2868;SDS011;1442;47.448;8.582;2023-02-11T12:53:24;19.08;;;10.43;;
2868;SDS011;1442;47.448;8.582;2023-02-11T12:55:57;21.05;;;10.82;;
2868;SDS011;1442;47.448;8.582;2023-02-11T12:58:27;21.65;;;11.65;;
2868;SDS011;1442;47.448;8.582;2023-02-11T13:00:55;21.52;;;11.68;;
2868;SDS011;1442;47.448;8.582;2023-02-11T13:03:27;27.75;;;11.15;;
2868;SDS011;1442;47.448;8.582;2023-02-11T13:05:57;22.83;;;11.68;;
2868;SDS011;1442;47.448;8.582;2023-02-11T13:08:28;23.63;;;11.82;;
2868;SDS011;1442;47.448;8.582;2023-02-11T13:10:57;19.45;;;11.20;;
2868;SDS011;1442;47.448;8.582;2023-02-11T13:13:25;21.75;;;11.32;;
2868;SDS011;1442;47.448;8.582;2023-02-11T13:15:55;20.35;;;11.70;;
2868;SDS011;1442;47.448;8.582;2023-02-11T13:18:31;21.15;;;11.80;;
2868;SDS011;1442;47.448;8.582;2023-02-11T13:21:15;22.33;;;12.57;;
2868;SDS011;1442;47.448;8.582;2023-02-11T13:23:45;20.77;;;11.40;;
2868;SDS011;1442;47.448;8.582;2023-02-11T13:26:15;23.00;;;12.20;;
2868;SDS011;1442;47.448;8.582;2023-02-11T13:28:46;22.02;;;11.10;;
2868;SDS011;1442;47.448;8.582;2023-02-11T13:31:14;23.38;;;11.23;;
2868;SDS011;1442;47.448;8.582;2023-02-11T13:33:45;20.30;;;11.30;;
2868;SDS011;1442;47.448;8.582;2023-02-11T13:36:17;28.83;;;11.70;;
2868;SDS011;1442;47.448;8.582;2023-02-11T13:38:52;23.33;;;11.88;;
2868;SDS011;1442;47.448;8.582;2023-02-11T13:41:21;21.40;;;11.15;;
2868;SDS011;1442;47.448;8.582;2023-02-11T13:43:57;28.15;;;11.77;;
2868;SDS011;1442;47.448;8.582;2023-02-11T13:46:25;22.45;;;11.95;;
2868;SDS011;1442;47.448;8.582;2023-02-11T13:48:55;22.88;;;12.43;;
2868;SDS011;1442;47.448;8.582;2023-02-11T13:51:33;23.50;;;12.25;;
2868;SDS011;1442;47.448;8.582;2023-02-11T13:54:01;23.15;;;11.30;;
2868;SDS011;1442;47.448;8.582;2023-02-11T13:56:29;22.23;;;12.02;;
2868;SDS011;1442;47.448;8.582;2023-02-11T13:58:57;25.52;;;11.93;;
2868;SDS011;1442;47.448;8.582;2023-02-11T14:01:41;23.50;;;12.90;;
2868;SDS011;1442;47.448;8.582;2023-02-11T14:04:19;22.98;;;13.18;;
2868;SDS011;1442;47.448;8.582;2023-02-11T14:10:05;20.95;;;11.63;;
2868;SDS011;1442;47.448;8.582;2023-02-11T14:13:04;20.33;;;11.57;;
2868;SDS011;1442;47.448;8.582;2023-02-11T14:15:37;23.75;;;12.27;;
2868;SDS011;1442;47.448;8.582;2023-02-11T14:20:47;22.55;;;12.20;;
2868;SDS011;1442;47.448;8.582;2023-02-11T14:23:20;23.27;;;12.35;;
2868;SDS011;1442;47.448;8.582;2023-02-11T14:25:51;24.23;;;11.77;;
2868;SDS011;1442;47.448;8.582;2023-02-11T14:28:20;23.85;;;12.55;;
2868;SDS011;1442;47.448;8.582;2023-02-11T14:30:52;21.48;;;11.27;;
2868;SDS011;1442;47.448;8.582;2023-02-11T14:33:27;19.88;;;11.30;;
2868;SDS011;1442;47.448;8.582;2023-02-11T14:36:03;28.30;;;12.65;;
2868;SDS011;1442;47.448;8.582;2023-02-11T14:38:34;25.83;;;12.93;;
2868;SDS011;1442;47.448;8.582;2023-02-11T14:41:06;25.80;;;13.27;;
2868;SDS011;1442;47.448;8.582;2023-02-11T14:43:37;21.00;;;12.10;;
2868;SDS011;1442;47.448;8.582;2023-02-11T14:46:06;24.30;;;12.23;;
2868;SDS011;1442;47.448;8.582;2023-02-11T14:48:35;26.92;;;12.77;;
2868;SDS011;1442;47.448;8.582;2023-02-11T14:51:05;27.58;;;12.50;;
2868;SDS011;1442;47.448;8.582;2023-02-11T14:53:33;21.77;;;12.70;;
2868;SDS011;1442;47.448;8.582;2023-02-11T14:56:02;23.27;;;12.65;;
2868;SDS011;1442;47.448;8.582;2023-02-11T14:58:29;25.00;;;13.18;;
2868;SDS011;1442;47.448;8.582;2023-02-11T15:00:58;24.60;;;13.20;;
2868;SDS011;1442;47.448;8.582;2023-02-11T15:03:26;26.40;;;13.55;;
2868;SDS011;1442;47.448;8.582;2023-02-11T15:05:54;26.35;;;13.30;;
2868;SDS011;1442;47.448;8.582;2023-02-11T15:08:23;26.10;;;12.40;;
2868;SDS011;1442;47.448;8.582;2023-02-11T15:10:51;28.08;;;14.38;;
2868;SDS011;1442;47.448;8.582;2023-02-11T15:13:21;30.10;;;14.75;;
2868;SDS011;1442;47.448;8.582;2023-02-11T15:15:51;25.83;;;12.38;;
2868;SDS011;1442;47.448;8.582;2023-02-11T15:18:21;26.58;;;14.07;;
2868;SDS011;1442;47.448;8.582;2023-02-11T15:20:49;24.23;;;12.75;;
2868;SDS011;1442;47.448;8.582;2023-02-11T15:23:19;24.13;;;13.07;;